<?xml version="1.0" encoding="UTF-8" standalone="no" ?><gpx xmlns="http://www.topografix.com/GPX/1/1" xmlns:gpxx="http://www.garmin.com/xmlschemas/GpxExtensions/v3" xmlns:wptx1="http://www.garmin.com/xmlschemas/WaypointExtension/v1" xmlns:gpxtpx="http://www.garmin.com/xmlschemas/TrackPointExtension/v1" creator="Dakota 20" version="1.1" xmlns:xsi="http://www.w3.org/2001/XMLSchema-instance" xsi:schemaLocation="http://www.topografix.com/GPX/1/1 http://www.topografix.com/GPX/1/1/gpx.xsd http://www.garmin.com/xmlschemas/GpxExtensions/v3 http://www8.garmin.com/xmlschemas/GpxExtensionsv3.xsd http://www.garmin.com/xmlschemas/WaypointExtension/v1 http://www8.garmin.com/xmlschemas/WaypointExtensionv1.xsd http://www.garmin.com/xmlschemas/TrackPointExtension/v1 http://www.garmin.com/xmlschemas/TrackPointExtensionv1.xsd"><metadata><link href="http://www.garmin.com"><text>Garmin International</text></link><time>2011-11-23T16:53:41Z</time></metadata><trk><name>Current Track: 23 NOV 2011 10:01</name><extensions><gpxx:TrackExtension><gpxx:DisplayColor>Black</gpxx:DisplayColor></gpxx:TrackExtension></extensions><trkseg><trkpt lat="51.8744061515" lon="-1.9662997685"><ele>171.25</ele><time>2011-11-23T10:01:32Z</time></trkpt><trkpt lat="51.8744061515" lon="-1.9662997685"><ele>171.25</ele><time>2011-11-23T10:01:33Z</time></trkpt><trkpt lat="51.8744061515" lon="-1.9662997685"><ele>169.81</ele><time>2011-11-23T10:01:35Z</time></trkpt><trkpt lat="51.8744061515" lon="-1.9662997685"><ele>164.52</ele><time>2011-11-23T10:01:39Z</time></trkpt><trkpt lat="51.8744061515" lon="-1.9662997685"><ele>169.33</ele><time>2011-11-23T10:01:40Z</time></trkpt><trkpt lat="51.8744507432" lon="-1.9663274288"><ele>168.85</ele><time>2011-11-23T10:02:00Z</time></trkpt><trkpt lat="51.8744750507" lon="-1.9663662370"><ele>169.33</ele><time>2011-11-23T10:02:03Z</time></trkpt><trkpt lat="51.8746843468" lon="-1.9664388243"><ele>169.81</ele><time>2011-11-23T10:02:21Z</time></trkpt><trkpt lat="51.8747036252" lon="-1.9664451946"><ele>169.33</ele><time>2011-11-23T10:02:23Z</time></trkpt><trkpt lat="51.8747666571" lon="-1.9664295204"><ele>169.33</ele><time>2011-11-23T10:02:27Z</time></trkpt><trkpt lat="51.8748363107" lon="-1.9660062343"><ele>169.33</ele><time>2011-11-23T10:02:45Z</time></trkpt><trkpt lat="51.8748607021" lon="-1.9657489099"><ele>169.33</ele><time>2011-11-23T10:02:58Z</time></trkpt><trkpt lat="51.8749246560" lon="-1.9657808449"><ele>169.33</ele><time>2011-11-23T10:03:02Z</time></trkpt><trkpt lat="51.8750881031" lon="-1.9659081660"><ele>169.33</ele><time>2011-11-23T10:03:14Z</time></trkpt><trkpt lat="51.8753186893" lon="-1.9660898857"><ele>169.33</ele><time>2011-11-23T10:03:32Z</time></trkpt><trkpt lat="51.8753646221" lon="-1.9661238324"><ele>169.33</ele><time>2011-11-23T10:03:36Z</time></trkpt><trkpt lat="51.8754372932" lon="-1.9661473017"><ele>169.33</ele><time>2011-11-23T10:03:41Z</time></trkpt><trkpt lat="51.8756062724" lon="-1.9662919734"><ele>169.33</ele><time>2011-11-23T10:03:56Z</time></trkpt><trkpt lat="51.8758280575" lon="-1.9664692506"><ele>170.29</ele><time>2011-11-23T10:04:14Z</time></trkpt><trkpt lat="51.8759557139" lon="-1.9666750263"><ele>170.77</ele><time>2011-11-23T10:04:28Z</time></trkpt><trkpt lat="51.8761036545" lon="-1.9668550696"><ele>171.25</ele><time>2011-11-23T10:04:43Z</time></trkpt><trkpt lat="51.8762654252" lon="-1.9670391362"><ele>170.77</ele><time>2011-11-23T10:04:57Z</time></trkpt><trkpt lat="51.8764524255" lon="-1.9672636874"><ele>170.77</ele><time>2011-11-23T10:05:14Z</time></trkpt><trkpt lat="51.8765808363" lon="-1.9674537051"><ele>170.77</ele><time>2011-11-23T10:05:29Z</time></trkpt><trkpt lat="51.8766518310" lon="-1.9676088542"><ele>171.25</ele><time>2011-11-23T10:05:43Z</time></trkpt><trkpt lat="51.8767526653" lon="-1.9678158872"><ele>171.25</ele><time>2011-11-23T10:05:57Z</time></trkpt><trkpt lat="51.8768483866" lon="-1.9680364151"><ele>171.73</ele><time>2011-11-23T10:06:12Z</time></trkpt><trkpt lat="51.8769383244" lon="-1.9682551827"><ele>171.73</ele><time>2011-11-23T10:06:28Z</time></trkpt><trkpt lat="51.8770050444" lon="-1.9684048835"><ele>172.21</ele><time>2011-11-23T10:06:42Z</time></trkpt><trkpt lat="51.8771011010" lon="-1.9686291832"><ele>172.21</ele><time>2011-11-23T10:06:57Z</time></trkpt><trkpt lat="51.8771933857" lon="-1.9688620325"><ele>172.21</ele><time>2011-11-23T10:07:12Z</time></trkpt><trkpt lat="51.8772753607" lon="-1.9690723345"><ele>171.73</ele><time>2011-11-23T10:07:26Z</time></trkpt><trkpt lat="51.8773679808" lon="-1.9692859892"><ele>172.21</ele><time>2011-11-23T10:07:40Z</time></trkpt><trkpt lat="51.8774639536" lon="-1.9695348479"><ele>172.21</ele><time>2011-11-23T10:07:58Z</time></trkpt><trkpt lat="51.8775442522" lon="-1.9697773363"><ele>171.73</ele><time>2011-11-23T10:08:14Z</time></trkpt><trkpt lat="51.8776508700" lon="-1.9700417016"><ele>172.69</ele><time>2011-11-23T10:08:30Z</time></trkpt><trkpt lat="51.8777382094" lon="-1.9702608883"><ele>172.21</ele><time>2011-11-23T10:08:44Z</time></trkpt><trkpt lat="51.8778070249" lon="-1.9704858586"><ele>173.17</ele><time>2011-11-23T10:08:58Z</time></trkpt><trkpt lat="51.8778839707" lon="-1.9707111642"><ele>172.69</ele><time>2011-11-23T10:09:13Z</time></trkpt><trkpt lat="51.8778923526" lon="-1.9707500562"><ele>173.17</ele><time>2011-11-23T10:09:15Z</time></trkpt><trkpt lat="51.8779616710" lon="-1.9710213784"><ele>173.17</ele><time>2011-11-23T10:09:32Z</time></trkpt><trkpt lat="51.8780177459" lon="-1.9712719973"><ele>173.17</ele><time>2011-11-23T10:09:48Z</time></trkpt><trkpt lat="51.8780471664" lon="-1.9714675471"><ele>173.66</ele><time>2011-11-23T10:10:00Z</time></trkpt><trkpt lat="51.8780512735" lon="-1.9714969676"><ele>173.66</ele><time>2011-11-23T10:10:02Z</time></trkpt><trkpt lat="51.8781146407" lon="-1.9717734866"><ele>174.14</ele><time>2011-11-23T10:10:19Z</time></trkpt><trkpt lat="51.8781959452" lon="-1.9719717186"><ele>174.62</ele><time>2011-11-23T10:10:32Z</time></trkpt><trkpt lat="51.8781707156" lon="-1.9721441343"><ele>175.10</ele><time>2011-11-23T10:10:45Z</time></trkpt><trkpt lat="51.8782312330" lon="-1.9723453000"><ele>175.58</ele><time>2011-11-23T10:11:01Z</time></trkpt><trkpt lat="51.8782224320" lon="-1.9725373294"><ele>174.62</ele><time>2011-11-23T10:11:18Z</time></trkpt><trkpt lat="51.8783032335" lon="-1.9727659039"><ele>174.14</ele><time>2011-11-23T10:11:33Z</time></trkpt><trkpt lat="51.8783843704" lon="-1.9729678240"><ele>174.14</ele><time>2011-11-23T10:11:47Z</time></trkpt><trkpt lat="51.8784317281" lon="-1.9731396530"><ele>174.14</ele><time>2011-11-23T10:11:59Z</time></trkpt><trkpt lat="51.8785107695" lon="-1.9733664673"><ele>173.66</ele><time>2011-11-23T10:12:17Z</time></trkpt><trkpt lat="51.8786064908" lon="-1.9735146593"><ele>174.14</ele><time>2011-11-23T10:12:34Z</time></trkpt><trkpt lat="51.8787360750" lon="-1.9738094509"><ele>174.62</ele><time>2011-11-23T10:12:53Z</time></trkpt><trkpt lat="51.8788383342" lon="-1.9740469102"><ele>174.62</ele><time>2011-11-23T10:13:10Z</time></trkpt><trkpt lat="51.8788719457" lon="-1.9741683640"><ele>174.62</ele><time>2011-11-23T10:13:28Z</time></trkpt><trkpt lat="51.8788911402" lon="-1.9741879776"><ele>174.62</ele><time>2011-11-23T10:13:47Z</time></trkpt><trkpt lat="51.8788946606" lon="-1.9742101058"><ele>174.62</ele><time>2011-11-23T10:14:04Z</time></trkpt><trkpt lat="51.8788897153" lon="-1.9742215052"><ele>174.62</ele><time>2011-11-23T10:14:25Z</time></trkpt><trkpt lat="51.8788853567" lon="-1.9742423762"><ele>174.62</ele><time>2011-11-23T10:14:39Z</time></trkpt><trkpt lat="51.8788736220" lon="-1.9742915779"><ele>174.14</ele><time>2011-11-23T10:14:41Z</time></trkpt><trkpt lat="51.8787575327" lon="-1.9745641574"><ele>174.62</ele><time>2011-11-23T10:14:59Z</time></trkpt><trkpt lat="51.8786387611" lon="-1.9747693464"><ele>174.62</ele><time>2011-11-23T10:15:17Z</time></trkpt><trkpt lat="51.8785766512" lon="-1.9748842623"><ele>174.62</ele><time>2011-11-23T10:15:27Z</time></trkpt><trkpt lat="51.8785579596" lon="-1.9749189634"><ele>173.66</ele><time>2011-11-23T10:15:30Z</time></trkpt><trkpt lat="51.8784856237" lon="-1.9750539120"><ele>174.14</ele><time>2011-11-23T10:15:41Z</time></trkpt><trkpt lat="51.8784534372" lon="-1.9751135074"><ele>174.62</ele><time>2011-11-23T10:15:45Z</time></trkpt><trkpt lat="51.8784075044" lon="-1.9751633797"><ele>174.14</ele><time>2011-11-23T10:15:49Z</time></trkpt><trkpt lat="51.8782899901" lon="-1.9753711671"><ele>174.14</ele><time>2011-11-23T10:16:06Z</time></trkpt><trkpt lat="51.8782300595" lon="-1.9754486997"><ele>173.66</ele><time>2011-11-23T10:16:23Z</time></trkpt><trkpt lat="51.8781938497" lon="-1.9754871726"><ele>174.14</ele><time>2011-11-23T10:16:36Z</time></trkpt><trkpt lat="51.8781806063" lon="-1.9755079597"><ele>173.66</ele><time>2011-11-23T10:16:38Z</time></trkpt><trkpt lat="51.8781396188" lon="-1.9755659625"><ele>173.66</ele><time>2011-11-23T10:16:55Z</time></trkpt><trkpt lat="51.8781396188" lon="-1.9755659625"><ele>173.66</ele><time>2011-11-23T10:17:19Z</time></trkpt><trkpt lat="51.8780896626" lon="-1.9756456744"><ele>173.66</ele><time>2011-11-23T10:17:38Z</time></trkpt><trkpt lat="51.8780081067" lon="-1.9758559763"><ele>174.14</ele><time>2011-11-23T10:17:54Z</time></trkpt><trkpt lat="51.8780081905" lon="-1.9758815411"><ele>174.14</ele><time>2011-11-23T10:17:59Z</time></trkpt><trkpt lat="51.8780002277" lon="-1.9760111254"><ele>174.14</ele><time>2011-11-23T10:18:09Z</time></trkpt><trkpt lat="51.8779977970" lon="-1.9761537854"><ele>174.14</ele><time>2011-11-23T10:18:18Z</time></trkpt><trkpt lat="51.8780011497" lon="-1.9764126185"><ele>174.62</ele><time>2011-11-23T10:18:34Z</time></trkpt><trkpt lat="51.8779871520" lon="-1.9766297936"><ele>175.10</ele><time>2011-11-23T10:18:48Z</time></trkpt><trkpt lat="51.8779782671" lon="-1.9766934961"><ele>175.58</ele><time>2011-11-23T10:18:53Z</time></trkpt><trkpt lat="51.8779817037" lon="-1.9767324720"><ele>175.10</ele><time>2011-11-23T10:18:56Z</time></trkpt><trkpt lat="51.8779800273" lon="-1.9768079929"><ele>175.58</ele><time>2011-11-23T10:19:02Z</time></trkpt><trkpt lat="51.8779713102" lon="-1.9769434445"><ele>177.02</ele><time>2011-11-23T10:19:11Z</time></trkpt><trkpt lat="51.8779786024" lon="-1.9770771358"><ele>176.54</ele><time>2011-11-23T10:19:24Z</time></trkpt><trkpt lat="51.8779833801" lon="-1.9771591108"><ele>177.02</ele><time>2011-11-23T10:19:29Z</time></trkpt><trkpt lat="51.8780112918" lon="-1.9773296826"><ele>177.50</ele><time>2011-11-23T10:19:40Z</time></trkpt><trkpt lat="51.8780526146" lon="-1.9776358735"><ele>178.46</ele><time>2011-11-23T10:19:57Z</time></trkpt><trkpt lat="51.8780804425" lon="-1.9779155776"><ele>179.42</ele><time>2011-11-23T10:20:13Z</time></trkpt><trkpt lat="51.8780753296" lon="-1.9780719001"><ele>179.90</ele><time>2011-11-23T10:20:23Z</time></trkpt><trkpt lat="51.8780772574" lon="-1.9781027455"><ele>180.38</ele><time>2011-11-23T10:20:25Z</time></trkpt><trkpt lat="51.8781006429" lon="-1.9783604052"><ele>180.87</ele><time>2011-11-23T10:20:40Z</time></trkpt><trkpt lat="51.8781189993" lon="-1.9785984512"><ele>181.83</ele><time>2011-11-23T10:20:56Z</time></trkpt><trkpt lat="51.8780952785" lon="-1.9786587171"><ele>181.83</ele><time>2011-11-23T10:21:12Z</time></trkpt><trkpt lat="51.8780837115" lon="-1.9786577113"><ele>181.83</ele><time>2011-11-23T10:21:14Z</time></trkpt><trkpt lat="51.8779190909" lon="-1.9787335675"><ele>181.83</ele><time>2011-11-23T10:21:29Z</time></trkpt><trkpt lat="51.8777561467" lon="-1.9787982758"><ele>181.35</ele><time>2011-11-23T10:21:46Z</time></trkpt><trkpt lat="51.8776373751" lon="-1.9788571168"><ele>181.35</ele><time>2011-11-23T10:22:01Z</time></trkpt><trkpt lat="51.8776218686" lon="-1.9788622297"><ele>181.83</ele><time>2011-11-23T10:22:19Z</time></trkpt><trkpt lat="51.8775963876" lon="-1.9789045583"><ele>181.35</ele><time>2011-11-23T10:22:22Z</time></trkpt><trkpt lat="51.8775236327" lon="-1.9791756291"><ele>181.83</ele><time>2011-11-23T10:22:39Z</time></trkpt><trkpt lat="51.8774303421" lon="-1.9794126693"><ele>182.79</ele><time>2011-11-23T10:22:53Z</time></trkpt><trkpt lat="51.8773211259" lon="-1.9796812255"><ele>182.79</ele><time>2011-11-23T10:23:09Z</time></trkpt><trkpt lat="51.8772088084" lon="-1.9799280725"><ele>182.79</ele><time>2011-11-23T10:23:25Z</time></trkpt><trkpt lat="51.8771363888" lon="-1.9801158272"><ele>182.31</ele><time>2011-11-23T10:23:39Z</time></trkpt><trkpt lat="51.8771166913" lon="-1.9801611733"><ele>182.31</ele><time>2011-11-23T10:23:42Z</time></trkpt><trkpt lat="51.8770450260" lon="-1.9803045038"><ele>182.31</ele><time>2011-11-23T10:23:55Z</time></trkpt><trkpt lat="51.8770291843" lon="-1.9803260453"><ele>182.79</ele><time>2011-11-23T10:23:57Z</time></trkpt><trkpt lat="51.8769340497" lon="-1.9805902429"><ele>182.79</ele><time>2011-11-23T10:24:15Z</time></trkpt><trkpt lat="51.8768526614" lon="-1.9807908218"><ele>182.79</ele><time>2011-11-23T10:24:30Z</time></trkpt><trkpt lat="51.8767806608" lon="-1.9810165465"><ele>182.79</ele><time>2011-11-23T10:24:45Z</time></trkpt><trkpt lat="51.8767107558" lon="-1.9812349789"><ele>183.75</ele><time>2011-11-23T10:25:01Z</time></trkpt><trkpt lat="51.8766354863" lon="-1.9814382400"><ele>184.23</ele><time>2011-11-23T10:25:16Z</time></trkpt><trkpt lat="51.8765131943" lon="-1.9816622045"><ele>183.75</ele><time>2011-11-23T10:25:33Z</time></trkpt><trkpt lat="51.8764693569" lon="-1.9818168506"><ele>184.71</ele><time>2011-11-23T10:25:51Z</time></trkpt><trkpt lat="51.8764693569" lon="-1.9818168506"><ele>184.23</ele><time>2011-11-23T10:26:15Z</time></trkpt><trkpt lat="51.8764699437" lon="-1.9818169344"><ele>184.71</ele><time>2011-11-23T10:26:39Z</time></trkpt><trkpt lat="51.8764680158" lon="-1.9818262383"><ele>184.23</ele><time>2011-11-23T10:27:00Z</time></trkpt><trkpt lat="51.8763864599" lon="-1.9820102211"><ele>184.71</ele><time>2011-11-23T10:27:14Z</time></trkpt><trkpt lat="51.8762982823" lon="-1.9822305813"><ele>185.67</ele><time>2011-11-23T10:27:28Z</time></trkpt><trkpt lat="51.8762206659" lon="-1.9824016560"><ele>186.15</ele><time>2011-11-23T10:27:43Z</time></trkpt><trkpt lat="51.8761411216" lon="-1.9826124609"><ele>186.63</ele><time>2011-11-23T10:27:57Z</time></trkpt><trkpt lat="51.8760816939" lon="-1.9828173146"><ele>187.11</ele><time>2011-11-23T10:28:12Z</time></trkpt><trkpt lat="51.8759896606" lon="-1.9830334000"><ele>187.59</ele><time>2011-11-23T10:28:28Z</time></trkpt><trkpt lat="51.8759047519" lon="-1.9832356554"><ele>188.56</ele><time>2011-11-23T10:28:45Z</time></trkpt><trkpt lat="51.8757697195" lon="-1.9834977575"><ele>189.04</ele><time>2011-11-23T10:29:02Z</time></trkpt><trkpt lat="51.8757028319" lon="-1.9836880267"><ele>189.52</ele><time>2011-11-23T10:29:19Z</time></trkpt><trkpt lat="51.8756232038" lon="-1.9838717580"><ele>190.48</ele><time>2011-11-23T10:29:36Z</time></trkpt><trkpt lat="51.8755434081" lon="-1.9840686489"><ele>190.96</ele><time>2011-11-23T10:29:52Z</time></trkpt><trkpt lat="51.8754609302" lon="-1.9842928648"><ele>191.92</ele><time>2011-11-23T10:30:10Z</time></trkpt><trkpt lat="51.8753582519" lon="-1.9845160749"><ele>192.40</ele><time>2011-11-23T10:30:26Z</time></trkpt><trkpt lat="51.8752854131" lon="-1.9847034104"><ele>192.88</ele><time>2011-11-23T10:30:41Z</time></trkpt><trkpt lat="51.8752254825" lon="-1.9849047437"><ele>192.88</ele><time>2011-11-23T10:30:56Z</time></trkpt><trkpt lat="51.8751703296" lon="-1.9850703701"><ele>193.36</ele><time>2011-11-23T10:31:10Z</time></trkpt><trkpt lat="51.8751015142" lon="-1.9852668419"><ele>194.32</ele><time>2011-11-23T10:31:25Z</time></trkpt><trkpt lat="51.8750552461" lon="-1.9854307920"><ele>195.28</ele><time>2011-11-23T10:31:37Z</time></trkpt><trkpt lat="51.8749948964" lon="-1.9856198877"><ele>195.28</ele><time>2011-11-23T10:31:50Z</time></trkpt><trkpt lat="51.8749419227" lon="-1.9858182035"><ele>195.77</ele><time>2011-11-23T10:32:06Z</time></trkpt><trkpt lat="51.8749020249" lon="-1.9859884400"><ele>196.25</ele><time>2011-11-23T10:32:19Z</time></trkpt><trkpt lat="51.8748509791" lon="-1.9861661363"><ele>197.21</ele><time>2011-11-23T10:32:33Z</time></trkpt><trkpt lat="51.8748001847" lon="-1.9863674697"><ele>198.17</ele><time>2011-11-23T10:32:47Z</time></trkpt><trkpt lat="51.8747824151" lon="-1.9864718243"><ele>198.65</ele><time>2011-11-23T10:33:01Z</time></trkpt><trkpt lat="51.8747811578" lon="-1.9864885043"><ele>199.13</ele><time>2011-11-23T10:33:21Z</time></trkpt><trkpt lat="51.8747235741" lon="-1.9866866525"><ele>199.13</ele><time>2011-11-23T10:33:39Z</time></trkpt><trkpt lat="51.8746151123" lon="-1.9869640935"><ele>200.57</ele><time>2011-11-23T10:33:58Z</time></trkpt><trkpt lat="51.8745266832" lon="-1.9871377666"><ele>201.05</ele><time>2011-11-23T10:34:15Z</time></trkpt><trkpt lat="51.8744651601" lon="-1.9873033930"><ele>202.98</ele><time>2011-11-23T10:34:31Z</time></trkpt><trkpt lat="51.8744114321" lon="-1.9874789100"><ele>202.98</ele><time>2011-11-23T10:34:46Z</time></trkpt><trkpt lat="51.8743412755" lon="-1.9876747113"><ele>203.46</ele><time>2011-11-23T10:35:01Z</time></trkpt><trkpt lat="51.8743079994" lon="-1.9878062233"><ele>204.42</ele><time>2011-11-23T10:35:15Z</time></trkpt><trkpt lat="51.8742343225" lon="-1.9880498853"><ele>204.90</ele><time>2011-11-23T10:35:32Z</time></trkpt><trkpt lat="51.8741917424" lon="-1.9882362150"><ele>205.86</ele><time>2011-11-23T10:35:45Z</time></trkpt><trkpt lat="51.8741381820" lon="-1.9884516299"><ele>206.82</ele><time>2011-11-23T10:36:02Z</time></trkpt><trkpt lat="51.8740863819" lon="-1.9886533823"><ele>207.78</ele><time>2011-11-23T10:36:18Z</time></trkpt><trkpt lat="51.8740494177" lon="-1.9888497703"><ele>208.26</ele><time>2011-11-23T10:36:34Z</time></trkpt><trkpt lat="51.8740120344" lon="-1.9889975432"><ele>209.22</ele><time>2011-11-23T10:36:50Z</time></trkpt><trkpt lat="51.8739348371" lon="-1.9891889859"><ele>210.19</ele><time>2011-11-23T10:37:09Z</time></trkpt><trkpt lat="51.8738272134" lon="-1.9893682748"><ele>212.11</ele><time>2011-11-23T10:37:27Z</time></trkpt><trkpt lat="51.8737355992" lon="-1.9893290475"><ele>213.07</ele><time>2011-11-23T10:37:42Z</time></trkpt><trkpt lat="51.8736806978" lon="-1.9893224258"><ele>212.59</ele><time>2011-11-23T10:37:49Z</time></trkpt><trkpt lat="51.8735888321" lon="-1.9892727211"><ele>211.63</ele><time>2011-11-23T10:38:03Z</time></trkpt><trkpt lat="51.8734567333" lon="-1.9891976193"><ele>212.11</ele><time>2011-11-23T10:38:17Z</time></trkpt><trkpt lat="51.8733328488" lon="-1.9891565479"><ele>212.59</ele><time>2011-11-23T10:38:31Z</time></trkpt><trkpt lat="51.8731918652" lon="-1.9891365152"><ele>212.59</ele><time>2011-11-23T10:38:46Z</time></trkpt><trkpt lat="51.8730629515" lon="-1.9891092740"><ele>213.07</ele><time>2011-11-23T10:39:01Z</time></trkpt><trkpt lat="51.8729342893" lon="-1.9890874811"><ele>214.03</ele><time>2011-11-23T10:39:17Z</time></trkpt><trkpt lat="51.8728111591" lon="-1.9890708849"><ele>214.03</ele><time>2011-11-23T10:39:30Z</time></trkpt><trkpt lat="51.8726508133" lon="-1.9890623353"><ele>214.99</ele><time>2011-11-23T10:39:47Z</time></trkpt><trkpt lat="51.8725137692" lon="-1.9890560489"><ele>215.95</ele><time>2011-11-23T10:40:01Z</time></trkpt><trkpt lat="51.8723391742" lon="-1.9890445657"><ele>217.88</ele><time>2011-11-23T10:40:21Z</time></trkpt><trkpt lat="51.8721648306" lon="-1.9890223537"><ele>218.84</ele><time>2011-11-23T10:40:39Z</time></trkpt><trkpt lat="51.8720272835" lon="-1.9890366867"><ele>219.80</ele><time>2011-11-23T10:40:53Z</time></trkpt><trkpt lat="51.8718857132" lon="-1.9890889898"><ele>220.76</ele><time>2011-11-23T10:41:05Z</time></trkpt><trkpt lat="51.8717794307" lon="-1.9890319090"><ele>222.20</ele><time>2011-11-23T10:41:21Z</time></trkpt><trkpt lat="51.8716808595" lon="-1.9889429770"><ele>222.20</ele><time>2011-11-23T10:41:34Z</time></trkpt><trkpt lat="51.8716303166" lon="-1.9889086951"><ele>222.68</ele><time>2011-11-23T10:41:44Z</time></trkpt><trkpt lat="51.8715474196" lon="-1.9889213517"><ele>223.64</ele><time>2011-11-23T10:41:51Z</time></trkpt><trkpt lat="51.8713758420" lon="-1.9889185857"><ele>224.61</ele><time>2011-11-23T10:42:10Z</time></trkpt><trkpt lat="51.8712339364" lon="-1.9889549632"><ele>225.09</ele><time>2011-11-23T10:42:26Z</time></trkpt><trkpt lat="51.8710364588" lon="-1.9890321605"><ele>226.05</ele><time>2011-11-23T10:42:46Z</time></trkpt><trkpt lat="51.8708964810" lon="-1.9890600722"><ele>227.01</ele><time>2011-11-23T10:43:03Z</time></trkpt><trkpt lat="51.8707414996" lon="-1.9890916720"><ele>227.49</ele><time>2011-11-23T10:43:20Z</time></trkpt><trkpt lat="51.8705451116" lon="-1.9891702943"><ele>228.45</ele><time>2011-11-23T10:43:42Z</time></trkpt><trkpt lat="51.8703556806" lon="-1.9891758263"><ele>229.89</ele><time>2011-11-23T10:44:04Z</time></trkpt><trkpt lat="51.8701513298" lon="-1.9892054982"><ele>232.30</ele><time>2011-11-23T10:44:25Z</time></trkpt><trkpt lat="51.8700108491" lon="-1.9892226811"><ele>232.30</ele><time>2011-11-23T10:44:42Z</time></trkpt><trkpt lat="51.8699032255" lon="-1.9892350025"><ele>233.26</ele><time>2011-11-23T10:44:56Z</time></trkpt><trkpt lat="51.8697977811" lon="-1.9892813545"><ele>233.74</ele><time>2011-11-23T10:45:10Z</time></trkpt><trkpt lat="51.8697605655" lon="-1.9893012196"><ele>234.70</ele><time>2011-11-23T10:45:14Z</time></trkpt><trkpt lat="51.8697381020" lon="-1.9893215038"><ele>234.22</ele><time>2011-11-23T10:45:16Z</time></trkpt><trkpt lat="51.8695557956" lon="-1.9894317258"><ele>235.66</ele><time>2011-11-23T10:45:34Z</time></trkpt><trkpt lat="51.8695010617" lon="-1.9895436242"><ele>236.62</ele><time>2011-11-23T10:45:48Z</time></trkpt><trkpt lat="51.8695029896" lon="-1.9895777386"><ele>236.14</ele><time>2011-11-23T10:46:05Z</time></trkpt><trkpt lat="51.8695044145" lon="-1.9895845279"><ele>236.62</ele><time>2011-11-23T10:46:19Z</time></trkpt><trkpt lat="51.8695039954" lon="-1.9895841926"><ele>237.10</ele><time>2011-11-23T10:46:51Z</time></trkpt><trkpt lat="51.8694728985" lon="-1.9895606395"><ele>236.14</ele><time>2011-11-23T10:47:19Z</time></trkpt><trkpt lat="51.8694245350" lon="-1.9895773195"><ele>236.14</ele><time>2011-11-23T10:47:23Z</time></trkpt><trkpt lat="51.8692604173" lon="-1.9896841049"><ele>237.58</ele><time>2011-11-23T10:47:37Z</time></trkpt><trkpt lat="51.8691045977" lon="-1.9897905551"><ele>238.06</ele><time>2011-11-23T10:47:51Z</time></trkpt><trkpt lat="51.8690679688" lon="-1.9898162875"><ele>239.02</ele><time>2011-11-23T10:47:55Z</time></trkpt><trkpt lat="51.8690351956" lon="-1.9898345601"><ele>238.54</ele><time>2011-11-23T10:47:58Z</time></trkpt><trkpt lat="51.8689642847" lon="-1.9898767211"><ele>239.02</ele><time>2011-11-23T10:48:04Z</time></trkpt><trkpt lat="51.8688024301" lon="-1.9899949897"><ele>239.99</ele><time>2011-11-23T10:48:20Z</time></trkpt><trkpt lat="51.8686587643" lon="-1.9900853466"><ele>241.43</ele><time>2011-11-23T10:48:35Z</time></trkpt><trkpt lat="51.8686523102" lon="-1.9900861848"><ele>241.43</ele><time>2011-11-23T10:48:36Z</time></trkpt><trkpt lat="51.8685956486" lon="-1.9901187066"><ele>241.91</ele><time>2011-11-23T10:48:49Z</time></trkpt><trkpt lat="51.8685691617" lon="-1.9901410863"><ele>241.91</ele><time>2011-11-23T10:48:53Z</time></trkpt><trkpt lat="51.8684444390" lon="-1.9902234804"><ele>242.39</ele><time>2011-11-23T10:49:06Z</time></trkpt><trkpt lat="51.8683209736" lon="-1.9902933855"><ele>242.87</ele><time>2011-11-23T10:49:18Z</time></trkpt><trkpt lat="51.8682151102" lon="-1.9903522264"><ele>243.83</ele><time>2011-11-23T10:49:27Z</time></trkpt><trkpt lat="51.8680544291" lon="-1.9904405717"><ele>244.31</ele><time>2011-11-23T10:49:41Z</time></trkpt><trkpt lat="51.8678888027" lon="-1.9905423280"><ele>245.27</ele><time>2011-11-23T10:49:56Z</time></trkpt><trkpt lat="51.8677109387" lon="-1.9906383846"><ele>244.79</ele><time>2011-11-23T10:50:11Z</time></trkpt><trkpt lat="51.8676196598" lon="-1.9906800427"><ele>244.79</ele><time>2011-11-23T10:50:19Z</time></trkpt><trkpt lat="51.8675762415" lon="-1.9907108881"><ele>245.27</ele><time>2011-11-23T10:50:22Z</time></trkpt><trkpt lat="51.8675092701" lon="-1.9907527976"><ele>244.31</ele><time>2011-11-23T10:50:27Z</time></trkpt><trkpt lat="51.8673378602" lon="-1.9907265622"><ele>243.35</ele><time>2011-11-23T10:50:41Z</time></trkpt><trkpt lat="51.8673267961" lon="-1.9906875025"><ele>242.39</ele><time>2011-11-23T10:50:44Z</time></trkpt><trkpt lat="51.8673674483" lon="-1.9904949702"><ele>242.39</ele><time>2011-11-23T10:50:59Z</time></trkpt><trkpt lat="51.8673674483" lon="-1.9904949702"><ele>242.39</ele><time>2011-11-23T10:51:15Z</time></trkpt><trkpt lat="51.8673674483" lon="-1.9904949702"><ele>241.91</ele><time>2011-11-23T10:51:34Z</time></trkpt><trkpt lat="51.8673663586" lon="-1.9904927909"><ele>242.39</ele><time>2011-11-23T10:51:56Z</time></trkpt><trkpt lat="51.8673710525" lon="-1.9904935453"><ele>242.39</ele><time>2011-11-23T10:52:15Z</time></trkpt><trkpt lat="51.8673639279" lon="-1.9904880971"><ele>241.43</ele><time>2011-11-23T10:52:34Z</time></trkpt><trkpt lat="51.8673645146" lon="-1.9904804695"><ele>241.43</ele><time>2011-11-23T10:53:00Z</time></trkpt><trkpt lat="51.8673701305" lon="-1.9904630352"><ele>241.43</ele><time>2011-11-23T10:53:12Z</time></trkpt><trkpt lat="51.8673701305" lon="-1.9904630352"><ele>240.95</ele><time>2011-11-23T10:53:35Z</time></trkpt><trkpt lat="51.8673722260" lon="-1.9904739317"><ele>240.95</ele><time>2011-11-23T10:53:53Z</time></trkpt><trkpt lat="51.8673329148" lon="-1.9904852472"><ele>241.43</ele><time>2011-11-23T10:54:16Z</time></trkpt><trkpt lat="51.8673329148" lon="-1.9904852472"><ele>240.95</ele><time>2011-11-23T10:54:41Z</time></trkpt><trkpt lat="51.8673329148" lon="-1.9904853310"><ele>240.95</ele><time>2011-11-23T10:55:10Z</time></trkpt><trkpt lat="51.8673347589" lon="-1.9904830679"><ele>240.95</ele><time>2011-11-23T10:55:36Z</time></trkpt><trkpt lat="51.8673347589" lon="-1.9904830679"><ele>240.47</ele><time>2011-11-23T10:56:07Z</time></trkpt><trkpt lat="51.8673363514" lon="-1.9904842414"><ele>240.47</ele><time>2011-11-23T10:56:42Z</time></trkpt><trkpt lat="51.8673497625" lon="-1.9905080460"><ele>241.91</ele><time>2011-11-23T10:56:59Z</time></trkpt><trkpt lat="51.8673494272" lon="-1.9905217923"><ele>240.95</ele><time>2011-11-23T10:57:14Z</time></trkpt><trkpt lat="51.8673431408" lon="-1.9904684834"><ele>241.43</ele><time>2011-11-23T10:57:30Z</time></trkpt><trkpt lat="51.8673431408" lon="-1.9904684834"><ele>240.95</ele><time>2011-11-23T10:57:42Z</time></trkpt><trkpt lat="51.8673432246" lon="-1.9904687349"><ele>241.43</ele><time>2011-11-23T10:58:08Z</time></trkpt><trkpt lat="51.8673432246" lon="-1.9904687349"><ele>240.95</ele><time>2011-11-23T10:58:38Z</time></trkpt><trkpt lat="51.8673437275" lon="-1.9904697407"><ele>240.95</ele><time>2011-11-23T10:59:00Z</time></trkpt><trkpt lat="51.8673436437" lon="-1.9904692378"><ele>240.95</ele><time>2011-11-23T10:59:31Z</time></trkpt><trkpt lat="51.8673436437" lon="-1.9904692378"><ele>240.95</ele><time>2011-11-23T11:00:02Z</time></trkpt><trkpt lat="51.8673441466" lon="-1.9904696569"><ele>241.43</ele><time>2011-11-23T11:00:29Z</time></trkpt><trkpt lat="51.8673449848" lon="-1.9904680643"><ele>240.95</ele><time>2011-11-23T11:00:52Z</time></trkpt><trkpt lat="51.8673449848" lon="-1.9904680643"><ele>240.47</ele><time>2011-11-23T11:01:19Z</time></trkpt><trkpt lat="51.8673469126" lon="-1.9904611912"><ele>240.95</ele><time>2011-11-23T11:01:37Z</time></trkpt><trkpt lat="51.8673469126" lon="-1.9904611912"><ele>240.95</ele><time>2011-11-23T11:02:02Z</time></trkpt><trkpt lat="51.8673477508" lon="-1.9904357940"><ele>240.47</ele><time>2011-11-23T11:02:23Z</time></trkpt><trkpt lat="51.8673265446" lon="-1.9903128315"><ele>240.47</ele><time>2011-11-23T11:02:36Z</time></trkpt><trkpt lat="51.8673255388" lon="-1.9902915414"><ele>241.43</ele><time>2011-11-23T11:02:49Z</time></trkpt><trkpt lat="51.8673030753" lon="-1.9902257435"><ele>240.95</ele><time>2011-11-23T11:03:03Z</time></trkpt><trkpt lat="51.8673030753" lon="-1.9902257435"><ele>240.47</ele><time>2011-11-23T11:03:20Z</time></trkpt><trkpt lat="51.8672135565" lon="-1.9900151063"><ele>239.02</ele><time>2011-11-23T11:03:36Z</time></trkpt><trkpt lat="51.8671271391" lon="-1.9898440316"><ele>237.58</ele><time>2011-11-23T11:03:49Z</time></trkpt><trkpt lat="51.8670563120" lon="-1.9896156248"><ele>236.14</ele><time>2011-11-23T11:04:05Z</time></trkpt><trkpt lat="51.8669896759" lon="-1.9893848710"><ele>235.66</ele><time>2011-11-23T11:04:19Z</time></trkpt><trkpt lat="51.8669307511" lon="-1.9891200028"><ele>234.70</ele><time>2011-11-23T11:04:35Z</time></trkpt><trkpt lat="51.8669061922" lon="-1.9890285563"><ele>234.70</ele><time>2011-11-23T11:04:40Z</time></trkpt><trkpt lat="51.8668627739" lon="-1.9888412207"><ele>233.74</ele><time>2011-11-23T11:04:51Z</time></trkpt><trkpt lat="51.8668053579" lon="-1.9885864947"><ele>231.81</ele><time>2011-11-23T11:05:06Z</time></trkpt><trkpt lat="51.8667712435" lon="-1.9884162582"><ele>230.85</ele><time>2011-11-23T11:05:17Z</time></trkpt><trkpt lat="51.8667414039" lon="-1.9883025158"><ele>230.37</ele><time>2011-11-23T11:05:25Z</time></trkpt><trkpt lat="51.8666839041" lon="-1.9880856760"><ele>228.45</ele><time>2011-11-23T11:05:41Z</time></trkpt><trkpt lat="51.8666748516" lon="-1.9880754501"><ele>228.45</ele><time>2011-11-23T11:05:47Z</time></trkpt><trkpt lat="51.8666398991" lon="-1.9879018608"><ele>227.49</ele><time>2011-11-23T11:06:00Z</time></trkpt><trkpt lat="51.8666171003" lon="-1.9878105819"><ele>226.53</ele><time>2011-11-23T11:06:15Z</time></trkpt><trkpt lat="51.8665728439" lon="-1.9876302872"><ele>225.57</ele><time>2011-11-23T11:06:26Z</time></trkpt><trkpt lat="51.8665233068" lon="-1.9873681013"><ele>223.64</ele><time>2011-11-23T11:06:42Z</time></trkpt><trkpt lat="51.8664969876" lon="-1.9872880541"><ele>223.16</ele><time>2011-11-23T11:06:47Z</time></trkpt><trkpt lat="51.8664785475" lon="-1.9871955179"><ele>222.68</ele><time>2011-11-23T11:06:52Z</time></trkpt><trkpt lat="51.8664283399" lon="-1.9870030694"><ele>221.24</ele><time>2011-11-23T11:07:02Z</time></trkpt><trkpt lat="51.8663667329" lon="-1.9867837988"><ele>219.80</ele><time>2011-11-23T11:07:18Z</time></trkpt><trkpt lat="51.8662828300" lon="-1.9865222834"><ele>218.36</ele><time>2011-11-23T11:07:34Z</time></trkpt><trkpt lat="51.8661952391" lon="-1.9863095507"><ele>216.91</ele><time>2011-11-23T11:07:49Z</time></trkpt><trkpt lat="51.8660883699" lon="-1.9861129113"><ele>215.47</ele><time>2011-11-23T11:08:04Z</time></trkpt><trkpt lat="51.8660483044" lon="-1.9860419165"><ele>214.51</ele><time>2011-11-23T11:08:12Z</time></trkpt><trkpt lat="51.8659483921" lon="-1.9858644716"><ele>213.55</ele><time>2011-11-23T11:08:25Z</time></trkpt><trkpt lat="51.8658250943" lon="-1.9856754597"><ele>211.15</ele><time>2011-11-23T11:08:41Z</time></trkpt><trkpt lat="51.8657055683" lon="-1.9854959194"><ele>210.19</ele><time>2011-11-23T11:08:55Z</time></trkpt><trkpt lat="51.8656558637" lon="-1.9854399282"><ele>209.70</ele><time>2011-11-23T11:09:01Z</time></trkpt><trkpt lat="51.8655236810" lon="-1.9853145350"><ele>207.78</ele><time>2011-11-23T11:09:15Z</time></trkpt><trkpt lat="51.8653920013" lon="-1.9852323085"><ele>206.34</ele><time>2011-11-23T11:09:29Z</time></trkpt><trkpt lat="51.8652355112" lon="-1.9850872178"><ele>204.90</ele><time>2011-11-23T11:09:45Z</time></trkpt><trkpt lat="51.8651207630" lon="-1.9849490840"><ele>203.46</ele><time>2011-11-23T11:10:00Z</time></trkpt><trkpt lat="51.8650285620" lon="-1.9848467410"><ele>202.01</ele><time>2011-11-23T11:10:16Z</time></trkpt><trkpt lat="51.8649935257" lon="-1.9848310668"><ele>201.53</ele><time>2011-11-23T11:10:33Z</time></trkpt><trkpt lat="51.8648825493" lon="-1.9846875686"><ele>200.09</ele><time>2011-11-23T11:10:50Z</time></trkpt><trkpt lat="51.8647517078" lon="-1.9845263008"><ele>198.65</ele><time>2011-11-23T11:11:05Z</time></trkpt><trkpt lat="51.8645627797" lon="-1.9843232073"><ele>196.25</ele><time>2011-11-23T11:11:22Z</time></trkpt><trkpt lat="51.8644315191" lon="-1.9841787033"><ele>194.80</ele><time>2011-11-23T11:11:38Z</time></trkpt><trkpt lat="51.8642731011" lon="-1.9840136636"><ele>193.36</ele><time>2011-11-23T11:11:54Z</time></trkpt><trkpt lat="51.8641123362" lon="-1.9838913716"><ele>192.40</ele><time>2011-11-23T11:12:11Z</time></trkpt><trkpt lat="51.8639648985" lon="-1.9838097319"><ele>190.96</ele><time>2011-11-23T11:12:27Z</time></trkpt><trkpt lat="51.8638520781" lon="-1.9837867655"><ele>190.00</ele><time>2011-11-23T11:12:38Z</time></trkpt><trkpt lat="51.8637025449" lon="-1.9837632123"><ele>188.56</ele><time>2011-11-23T11:12:56Z</time></trkpt><trkpt lat="51.8635292910" lon="-1.9837481249"><ele>187.11</ele><time>2011-11-23T11:13:10Z</time></trkpt><trkpt lat="51.8634277023" lon="-1.9837084785"><ele>186.63</ele><time>2011-11-23T11:13:20Z</time></trkpt><trkpt lat="51.8632732239" lon="-1.9836360589"><ele>185.67</ele><time>2011-11-23T11:13:35Z</time></trkpt><trkpt lat="51.8632407021" lon="-1.9835352246"><ele>185.19</ele><time>2011-11-23T11:13:47Z</time></trkpt><trkpt lat="51.8632378522" lon="-1.9835042953"><ele>185.19</ele><time>2011-11-23T11:14:00Z</time></trkpt><trkpt lat="51.8632373493" lon="-1.9835322071"><ele>184.71</ele><time>2011-11-23T11:14:20Z</time></trkpt><trkpt lat="51.8632412050" lon="-1.9835157786"><ele>184.71</ele><time>2011-11-23T11:14:36Z</time></trkpt><trkpt lat="51.8632386066" lon="-1.9835141860"><ele>184.23</ele><time>2011-11-23T11:14:53Z</time></trkpt><trkpt lat="51.8632786721" lon="-1.9834078196"><ele>184.23</ele><time>2011-11-23T11:15:03Z</time></trkpt><trkpt lat="51.8632968608" lon="-1.9833601266"><ele>183.75</ele><time>2011-11-23T11:15:06Z</time></trkpt><trkpt lat="51.8634105194" lon="-1.9831366651"><ele>183.75</ele><time>2011-11-23T11:15:22Z</time></trkpt><trkpt lat="51.8635064922" lon="-1.9829306379"><ele>183.27</ele><time>2011-11-23T11:15:36Z</time></trkpt><trkpt lat="51.8635420315" lon="-1.9827674422"><ele>182.31</ele><time>2011-11-23T11:15:46Z</time></trkpt><trkpt lat="51.8635446299" lon="-1.9824647717"><ele>182.31</ele><time>2011-11-23T11:16:04Z</time></trkpt><trkpt lat="51.8635302968" lon="-1.9822383765"><ele>181.35</ele><time>2011-11-23T11:16:18Z</time></trkpt><trkpt lat="51.8634824362" lon="-1.9819862489"><ele>181.35</ele><time>2011-11-23T11:16:32Z</time></trkpt><trkpt lat="51.8634562008" lon="-1.9818037748"><ele>180.87</ele><time>2011-11-23T11:16:46Z</time></trkpt><trkpt lat="51.8634277023" lon="-1.9815784693"><ele>184.71</ele><time>2011-11-23T11:17:00Z</time></trkpt><trkpt lat="51.8634273671" lon="-1.9815276749"><ele>181.35</ele><time>2011-11-23T11:17:03Z</time></trkpt><trkpt lat="51.8634425383" lon="-1.9814843405"><ele>181.35</ele><time>2011-11-23T11:17:15Z</time></trkpt><trkpt lat="51.8634505011" lon="-1.9814705104"><ele>177.50</ele><time>2011-11-23T11:17:27Z</time></trkpt><trkpt lat="51.8634551112" lon="-1.9814663194"><ele>181.35</ele><time>2011-11-23T11:17:28Z</time></trkpt><trkpt lat="51.8634451367" lon="-1.9813420996"><ele>181.35</ele><time>2011-11-23T11:17:42Z</time></trkpt><trkpt lat="51.8634405266" lon="-1.9813200552"><ele>181.35</ele><time>2011-11-23T11:17:59Z</time></trkpt><trkpt lat="51.8634405266" lon="-1.9813200552"><ele>181.35</ele><time>2011-11-23T11:18:21Z</time></trkpt><trkpt lat="51.8634499982" lon="-1.9811081607"><ele>180.87</ele><time>2011-11-23T11:18:35Z</time></trkpt><trkpt lat="51.8634789158" lon="-1.9808998704"><ele>179.90</ele><time>2011-11-23T11:18:51Z</time></trkpt><trkpt lat="51.8634748086" lon="-1.9808606431"><ele>180.38</ele><time>2011-11-23T11:19:04Z</time></trkpt><trkpt lat="51.8634748086" lon="-1.9808606431"><ele>180.38</ele><time>2011-11-23T11:19:33Z</time></trkpt><trkpt lat="51.8634797540" lon="-1.9809123594"><ele>180.87</ele><time>2011-11-23T11:19:48Z</time></trkpt><trkpt lat="51.8635106832" lon="-1.9808396045"><ele>180.87</ele><time>2011-11-23T11:20:01Z</time></trkpt><trkpt lat="51.8635010440" lon="-1.9808204100"><ele>181.35</ele><time>2011-11-23T11:20:16Z</time></trkpt><trkpt lat="51.8635052349" lon="-1.9808007125"><ele>180.87</ele><time>2011-11-23T11:20:28Z</time></trkpt><trkpt lat="51.8635101803" lon="-1.9807996228"><ele>180.87</ele><time>2011-11-23T11:20:39Z</time></trkpt><trkpt lat="51.8635203224" lon="-1.9808163028"><ele>180.87</ele><time>2011-11-23T11:21:00Z</time></trkpt><trkpt lat="51.8635138683" lon="-1.9808329828"><ele>180.38</ele><time>2011-11-23T11:21:13Z</time></trkpt><trkpt lat="51.8635212444" lon="-1.9808131177"><ele>180.38</ele><time>2011-11-23T11:21:17Z</time></trkpt><trkpt lat="51.8635427859" lon="-1.9806745648"><ele>180.38</ele><time>2011-11-23T11:21:25Z</time></trkpt><trkpt lat="51.8635488208" lon="-1.9803498499"><ele>180.87</ele><time>2011-11-23T11:21:39Z</time></trkpt><trkpt lat="51.8635888025" lon="-1.9799935352"><ele>177.98</ele><time>2011-11-23T11:21:55Z</time></trkpt><trkpt lat="51.8636100087" lon="-1.9796681497"><ele>177.02</ele><time>2011-11-23T11:22:09Z</time></trkpt><trkpt lat="51.8636371661" lon="-1.9794541597"><ele>176.54</ele><time>2011-11-23T11:22:21Z</time></trkpt><trkpt lat="51.8636637367" lon="-1.9792677462"><ele>176.06</ele><time>2011-11-23T11:22:36Z</time></trkpt><trkpt lat="51.8636741303" lon="-1.9790657423"><ele>176.06</ele><time>2011-11-23T11:22:50Z</time></trkpt><trkpt lat="51.8636599649" lon="-1.9788283668"><ele>176.06</ele><time>2011-11-23T11:23:04Z</time></trkpt><trkpt lat="51.8636721186" lon="-1.9785676897"><ele>177.50</ele><time>2011-11-23T11:23:21Z</time></trkpt><trkpt lat="51.8636668380" lon="-1.9782997202"><ele>178.46</ele><time>2011-11-23T11:23:35Z</time></trkpt><trkpt lat="51.8636749685" lon="-1.9780690502"><ele>179.90</ele><time>2011-11-23T11:23:50Z</time></trkpt><trkpt lat="51.8636543490" lon="-1.9778689742"><ele>180.38</ele><time>2011-11-23T11:24:05Z</time></trkpt><trkpt lat="51.8636290357" lon="-1.9776782021"><ele>180.87</ele><time>2011-11-23T11:24:19Z</time></trkpt><trkpt lat="51.8636186421" lon="-1.9775464386"><ele>180.87</ele><time>2011-11-23T11:24:28Z</time></trkpt><trkpt lat="51.8635891378" lon="-1.9773041178"><ele>180.87</ele><time>2011-11-23T11:24:43Z</time></trkpt><trkpt lat="51.8635775708" lon="-1.9771935605"><ele>180.87</ele><time>2011-11-23T11:24:58Z</time></trkpt><trkpt lat="51.8635784090" lon="-1.9771521538"><ele>180.87</ele><time>2011-11-23T11:25:13Z</time></trkpt><trkpt lat="51.8635784090" lon="-1.9771521538"><ele>180.38</ele><time>2011-11-23T11:25:17Z</time></trkpt><trkpt lat="51.8635887187" lon="-1.9770765491"><ele>180.38</ele><time>2011-11-23T11:25:21Z</time></trkpt><trkpt lat="51.8635784090" lon="-1.9768318813"><ele>179.90</ele><time>2011-11-23T11:25:34Z</time></trkpt><trkpt lat="51.8635685183" lon="-1.9767361600"><ele>179.90</ele><time>2011-11-23T11:25:40Z</time></trkpt><trkpt lat="51.8635401875" lon="-1.9765288755"><ele>178.46</ele><time>2011-11-23T11:25:55Z</time></trkpt><trkpt lat="51.8635190651" lon="-1.9764188211"><ele>178.46</ele><time>2011-11-23T11:26:02Z</time></trkpt><trkpt lat="51.8635107670" lon="-1.9763502572"><ele>177.02</ele><time>2011-11-23T11:26:06Z</time></trkpt><trkpt lat="51.8634963501" lon="-1.9763030671"><ele>177.50</ele><time>2011-11-23T11:26:09Z</time></trkpt><trkpt lat="51.8634930812" lon="-1.9760874845"><ele>177.50</ele><time>2011-11-23T11:26:22Z</time></trkpt><trkpt lat="51.8634934165" lon="-1.9758458342"><ele>175.10</ele><time>2011-11-23T11:26:37Z</time></trkpt><trkpt lat="51.8635020498" lon="-1.9756676350"><ele>174.14</ele><time>2011-11-23T11:26:50Z</time></trkpt><trkpt lat="51.8634922430" lon="-1.9754186925"><ele>173.17</ele><time>2011-11-23T11:27:04Z</time></trkpt><trkpt lat="51.8635028880" lon="-1.9751997571"><ele>172.69</ele><time>2011-11-23T11:27:22Z</time></trkpt><trkpt lat="51.8635086715" lon="-1.9751871843"><ele>168.85</ele><time>2011-11-23T11:27:29Z</time></trkpt><trkpt lat="51.8635086715" lon="-1.9751871843"><ele>172.69</ele><time>2011-11-23T11:27:31Z</time></trkpt><trkpt lat="51.8635027204" lon="-1.9750819914"><ele>171.25</ele><time>2011-11-23T11:27:38Z</time></trkpt><trkpt lat="51.8635010440" lon="-1.9750288501"><ele>171.25</ele><time>2011-11-23T11:27:41Z</time></trkpt><trkpt lat="51.8635085877" lon="-1.9748941530"><ele>171.25</ele><time>2011-11-23T11:27:49Z</time></trkpt><trkpt lat="51.8635154609" lon="-1.9747365732"><ele>171.25</ele><time>2011-11-23T11:27:57Z</time></trkpt><trkpt lat="51.8634930812" lon="-1.9743559510"><ele>170.29</ele><time>2011-11-23T11:28:15Z</time></trkpt><trkpt lat="51.8634863757" lon="-1.9741789252"><ele>169.33</ele><time>2011-11-23T11:28:23Z</time></trkpt><trkpt lat="51.8634676840" lon="-1.9738604967"><ele>169.33</ele><time>2011-11-23T11:28:38Z</time></trkpt><trkpt lat="51.8635044806" lon="-1.9736824650"><ele>169.33</ele><time>2011-11-23T11:28:55Z</time></trkpt><trkpt lat="51.8635045644" lon="-1.9736854825"><ele>169.81</ele><time>2011-11-23T11:29:12Z</time></trkpt><trkpt lat="51.8634976912" lon="-1.9736723229"><ele>169.33</ele><time>2011-11-23T11:29:31Z</time></trkpt><trkpt lat="51.8634989485" lon="-1.9736763462"><ele>169.81</ele><time>2011-11-23T11:29:55Z</time></trkpt><trkpt lat="51.8634989485" lon="-1.9736763462"><ele>169.33</ele><time>2011-11-23T11:30:15Z</time></trkpt><trkpt lat="51.8635184783" lon="-1.9737140648"><ele>169.81</ele><time>2011-11-23T11:30:41Z</time></trkpt><trkpt lat="51.8635274470" lon="-1.9736919366"><ele>170.29</ele><time>2011-11-23T11:30:48Z</time></trkpt><trkpt lat="51.8635851145" lon="-1.9735521264"><ele>170.29</ele><time>2011-11-23T11:31:00Z</time></trkpt><trkpt lat="51.8635991123" lon="-1.9734464306"><ele>169.81</ele><time>2011-11-23T11:31:14Z</time></trkpt><trkpt lat="51.8635451328" lon="-1.9732964784"><ele>169.33</ele><time>2011-11-23T11:31:27Z</time></trkpt><trkpt lat="51.8635400198" lon="-1.9732079655"><ele>169.33</ele><time>2011-11-23T11:31:39Z</time></trkpt><trkpt lat="51.8635340687" lon="-1.9730771240"><ele>169.33</ele><time>2011-11-23T11:31:48Z</time></trkpt><trkpt lat="51.8635702785" lon="-1.9728412572"><ele>169.33</ele><time>2011-11-23T11:32:05Z</time></trkpt><trkpt lat="51.8636314664" lon="-1.9726631418"><ele>169.81</ele><time>2011-11-23T11:32:19Z</time></trkpt><trkpt lat="51.8636478949" lon="-1.9725389220"><ele>170.29</ele><time>2011-11-23T11:32:26Z</time></trkpt><trkpt lat="51.8637058977" lon="-1.9723144546"><ele>169.81</ele><time>2011-11-23T11:32:41Z</time></trkpt><trkpt lat="51.8637540936" lon="-1.9720838685"><ele>170.77</ele><time>2011-11-23T11:32:57Z</time></trkpt><trkpt lat="51.8637918122" lon="-1.9718683697"><ele>170.77</ele><time>2011-11-23T11:33:11Z</time></trkpt><trkpt lat="51.8638017029" lon="-1.9718249515"><ele>170.77</ele><time>2011-11-23T11:33:15Z</time></trkpt><trkpt lat="51.8638121802" lon="-1.9717747439"><ele>170.29</ele><time>2011-11-23T11:33:18Z</time></trkpt><trkpt lat="51.8638583645" lon="-1.9715191796"><ele>170.29</ele><time>2011-11-23T11:33:34Z</time></trkpt><trkpt lat="51.8639031239" lon="-1.9712827262"><ele>170.77</ele><time>2011-11-23T11:33:50Z</time></trkpt><trkpt lat="51.8639627192" lon="-1.9710775372"><ele>170.29</ele><time>2011-11-23T11:34:07Z</time></trkpt><trkpt lat="51.8639970850" lon="-1.9708915427"><ele>170.77</ele><time>2011-11-23T11:34:20Z</time></trkpt><trkpt lat="51.8640441075" lon="-1.9707026985"><ele>170.29</ele><time>2011-11-23T11:34:35Z</time></trkpt><trkpt lat="51.8640897889" lon="-1.9704424404"><ele>170.77</ele><time>2011-11-23T11:34:50Z</time></trkpt><trkpt lat="51.8641394097" lon="-1.9702383410"><ele>171.25</ele><time>2011-11-23T11:35:05Z</time></trkpt><trkpt lat="51.8641638011" lon="-1.9700467307"><ele>171.73</ele><time>2011-11-23T11:35:15Z</time></trkpt><trkpt lat="51.8641706742" lon="-1.9700044021"><ele>171.73</ele><time>2011-11-23T11:35:18Z</time></trkpt><trkpt lat="51.8641864322" lon="-1.9699439686"><ele>171.25</ele><time>2011-11-23T11:35:22Z</time></trkpt><trkpt lat="51.8642301019" lon="-1.9697049167"><ele>170.77</ele><time>2011-11-23T11:35:38Z</time></trkpt><trkpt lat="51.8642533198" lon="-1.9694827963"><ele>170.29</ele><time>2011-11-23T11:35:52Z</time></trkpt><trkpt lat="51.8642535713" lon="-1.9692496117"><ele>169.81</ele><time>2011-11-23T11:36:07Z</time></trkpt><trkpt lat="51.8642615341" lon="-1.9690323528"><ele>169.33</ele><time>2011-11-23T11:36:23Z</time></trkpt><trkpt lat="51.8642672338" lon="-1.9688928779"><ele>168.85</ele><time>2011-11-23T11:36:38Z</time></trkpt><trkpt lat="51.8642608635" lon="-1.9687889423"><ele>168.85</ele><time>2011-11-23T11:36:45Z</time></trkpt><trkpt lat="51.8642389029" lon="-1.9686517306"><ele>168.37</ele><time>2011-11-23T11:36:58Z</time></trkpt><trkpt lat="51.8641943112" lon="-1.9683878683"><ele>167.89</ele><time>2011-11-23T11:37:15Z</time></trkpt><trkpt lat="51.8641757034" lon="-1.9681647420"><ele>167.41</ele><time>2011-11-23T11:37:30Z</time></trkpt><trkpt lat="51.8641737755" lon="-1.9679374248"><ele>166.45</ele><time>2011-11-23T11:37:44Z</time></trkpt><trkpt lat="51.8640985899" lon="-1.9677827787"><ele>165.96</ele><time>2011-11-23T11:37:57Z</time></trkpt><trkpt lat="51.8639944866" lon="-1.9676116202"><ele>165.00</ele><time>2011-11-23T11:38:10Z</time></trkpt><trkpt lat="51.8639113382" lon="-1.9674345106"><ele>165.00</ele><time>2011-11-23T11:38:24Z</time></trkpt><trkpt lat="51.8638984300" lon="-1.9673749153"><ele>164.52</ele><time>2011-11-23T11:38:29Z</time></trkpt><trkpt lat="51.8638354819" lon="-1.9671843946"><ele>164.04</ele><time>2011-11-23T11:38:44Z</time></trkpt><trkpt lat="51.8637848552" lon="-1.9669763558"><ele>163.56</ele><time>2011-11-23T11:38:59Z</time></trkpt><trkpt lat="51.8637638167" lon="-1.9668746833"><ele>163.08</ele><time>2011-11-23T11:39:06Z</time></trkpt><trkpt lat="51.8637271877" lon="-1.9667414948"><ele>163.08</ele><time>2011-11-23T11:39:16Z</time></trkpt><trkpt lat="51.8636780698" lon="-1.9665172789"><ele>162.60</ele><time>2011-11-23T11:39:31Z</time></trkpt><trkpt lat="51.8636383396" lon="-1.9663223159"><ele>162.12</ele><time>2011-11-23T11:39:44Z</time></trkpt><trkpt lat="51.8635992799" lon="-1.9661363214"><ele>161.64</ele><time>2011-11-23T11:39:59Z</time></trkpt><trkpt lat="51.8635779899" lon="-1.9660582859"><ele>161.64</ele><time>2011-11-23T11:40:06Z</time></trkpt><trkpt lat="51.8635341525" lon="-1.9658307172"><ele>161.64</ele><time>2011-11-23T11:40:21Z</time></trkpt><trkpt lat="51.8635334820" lon="-1.9657902326"><ele>161.64</ele><time>2011-11-23T11:40:33Z</time></trkpt><trkpt lat="51.8635543529" lon="-1.9657587167"><ele>161.64</ele><time>2011-11-23T11:40:38Z</time></trkpt><trkpt lat="51.8637188058" lon="-1.9656868000"><ele>161.64</ele><time>2011-11-23T11:40:54Z</time></trkpt><trkpt lat="51.8638403434" lon="-1.9656476565"><ele>162.12</ele><time>2011-11-23T11:41:09Z</time></trkpt><trkpt lat="51.8639753759" lon="-1.9656553678"><ele>162.60</ele><time>2011-11-23T11:41:25Z</time></trkpt><trkpt lat="51.8640024494" lon="-1.9656630792"><ele>162.60</ele><time>2011-11-23T11:41:36Z</time></trkpt><trkpt lat="51.8641443551" lon="-1.9657313917"><ele>163.08</ele><time>2011-11-23T11:41:49Z</time></trkpt><trkpt lat="51.8642359693" lon="-1.9658681843"><ele>162.60</ele><time>2011-11-23T11:42:03Z</time></trkpt><trkpt lat="51.8642566726" lon="-1.9658648316"><ele>162.60</ele><time>2011-11-23T11:42:17Z</time></trkpt><trkpt lat="51.8642631266" lon="-1.9658618141"><ele>162.60</ele><time>2011-11-23T11:42:29Z</time></trkpt><trkpt lat="51.8642631266" lon="-1.9658618141"><ele>162.12</ele><time>2011-11-23T11:42:33Z</time></trkpt><trkpt lat="51.8643150944" lon="-1.9658786617"><ele>162.60</ele><time>2011-11-23T11:42:38Z</time></trkpt><trkpt lat="51.8644822296" lon="-1.9658934977"><ele>162.60</ele><time>2011-11-23T11:42:52Z</time></trkpt><trkpt lat="51.8645967264" lon="-1.9659040589"><ele>163.08</ele><time>2011-11-23T11:43:07Z</time></trkpt><trkpt lat="51.8646914419" lon="-1.9659047294"><ele>163.08</ele><time>2011-11-23T11:43:17Z</time></trkpt><trkpt lat="51.8648180086" lon="-1.9658779074"><ele>163.08</ele><time>2011-11-23T11:43:31Z</time></trkpt><trkpt lat="51.8649165798" lon="-1.9658339862"><ele>163.56</ele><time>2011-11-23T11:43:44Z</time></trkpt><trkpt lat="51.8650761712" lon="-1.9658121094"><ele>164.04</ele><time>2011-11-23T11:44:00Z</time></trkpt><trkpt lat="51.8651910033" lon="-1.9658530969"><ele>164.04</ele><time>2011-11-23T11:44:12Z</time></trkpt><trkpt lat="51.8653624132" lon="-1.9659468904"><ele>164.52</ele><time>2011-11-23T11:44:27Z</time></trkpt><trkpt lat="51.8655068334" lon="-1.9660367444"><ele>165.48</ele><time>2011-11-23T11:44:42Z</time></trkpt><trkpt lat="51.8656150438" lon="-1.9660707749"><ele>166.93</ele><time>2011-11-23T11:44:57Z</time></trkpt><trkpt lat="51.8657484837" lon="-1.9660471380"><ele>167.89</ele><time>2011-11-23T11:45:12Z</time></trkpt><trkpt lat="51.8658862822" lon="-1.9660356548"><ele>168.37</ele><time>2011-11-23T11:45:27Z</time></trkpt><trkpt lat="51.8660195544" lon="-1.9660343975"><ele>168.85</ele><time>2011-11-23T11:45:43Z</time></trkpt><trkpt lat="51.8661782239" lon="-1.9660470542"><ele>168.37</ele><time>2011-11-23T11:46:00Z</time></trkpt><trkpt lat="51.8663518969" lon="-1.9660653267"><ele>168.85</ele><time>2011-11-23T11:46:18Z</time></trkpt><trkpt lat="51.8664358836" lon="-1.9660738762"><ele>168.85</ele><time>2011-11-23T11:46:28Z</time></trkpt><trkpt lat="51.8665194511" lon="-1.9660822581"><ele>169.33</ele><time>2011-11-23T11:46:36Z</time></trkpt><trkpt lat="51.8667195272" lon="-1.9660944957"><ele>169.33</ele><time>2011-11-23T11:46:56Z</time></trkpt><trkpt lat="51.8669020850" lon="-1.9660713617"><ele>169.33</ele><time>2011-11-23T11:47:10Z</time></trkpt><trkpt lat="51.8670603354" lon="-1.9660816714"><ele>169.33</ele><time>2011-11-23T11:47:29Z</time></trkpt><trkpt lat="51.8672533706" lon="-1.9660839345"><ele>169.81</ele><time>2011-11-23T11:47:49Z</time></trkpt><trkpt lat="51.8672820367" lon="-1.9660860300"><ele>170.29</ele><time>2011-11-23T11:47:51Z</time></trkpt><trkpt lat="51.8673931807" lon="-1.9660804141"><ele>165.00</ele><time>2011-11-23T11:48:02Z</time></trkpt><trkpt lat="51.8674025685" lon="-1.9660790730"><ele>169.81</ele><time>2011-11-23T11:48:03Z</time></trkpt><trkpt lat="51.8675106950" lon="-1.9660661649"><ele>170.77</ele><time>2011-11-23T11:48:13Z</time></trkpt><trkpt lat="51.8676320650" lon="-1.9660592079"><ele>170.77</ele><time>2011-11-23T11:48:24Z</time></trkpt><trkpt lat="51.8676775787" lon="-1.9660646562"><ele>167.89</ele><time>2011-11-23T11:48:29Z</time></trkpt><trkpt lat="51.8676873017" lon="-1.9660602137"><ele>171.25</ele><time>2011-11-23T11:48:30Z</time></trkpt><trkpt lat="51.8676977791" lon="-1.9660597108"><ele>170.77</ele><time>2011-11-23T11:48:31Z</time></trkpt><trkpt lat="51.8677063286" lon="-1.9660592917"><ele>167.41</ele><time>2011-11-23T11:48:32Z</time></trkpt><trkpt lat="51.8677146267" lon="-1.9660576992"><ele>170.29</ele><time>2011-11-23T11:48:33Z</time></trkpt><trkpt lat="51.8679080810" lon="-1.9660312962"><ele>170.77</ele><time>2011-11-23T11:48:52Z</time></trkpt><trkpt lat="51.8679218274" lon="-1.9660266861"><ele>170.77</ele><time>2011-11-23T11:49:13Z</time></trkpt><trkpt lat="51.8679224141" lon="-1.9660267700"><ele>170.77</ele><time>2011-11-23T11:49:36Z</time></trkpt><trkpt lat="51.8679348193" lon="-1.9660061505"><ele>170.29</ele><time>2011-11-23T11:49:58Z</time></trkpt><trkpt lat="51.8679348193" lon="-1.9660061505"><ele>170.29</ele><time>2011-11-23T11:50:20Z</time></trkpt><trkpt lat="51.8679982703" lon="-1.9660152867"><ele>170.77</ele><time>2011-11-23T11:50:26Z</time></trkpt><trkpt lat="51.8681814987" lon="-1.9659959245"><ele>171.25</ele><time>2011-11-23T11:50:42Z</time></trkpt><trkpt lat="51.8682610430" lon="-1.9660079107"><ele>171.25</ele><time>2011-11-23T11:50:50Z</time></trkpt><trkpt lat="51.8683388270" lon="-1.9659958407"><ele>170.77</ele><time>2011-11-23T11:50:58Z</time></trkpt><trkpt lat="51.8685135059" lon="-1.9660130236"><ele>171.73</ele><time>2011-11-23T11:51:14Z</time></trkpt><trkpt lat="51.8685720954" lon="-1.9660065696"><ele>171.25</ele><time>2011-11-23T11:51:17Z</time></trkpt><trkpt lat="51.8686735164" lon="-1.9660149515"><ele>170.77</ele><time>2011-11-23T11:51:25Z</time></trkpt><trkpt lat="51.8688688986" lon="-1.9660340622"><ele>170.29</ele><time>2011-11-23T11:51:38Z</time></trkpt><trkpt lat="51.8689170945" lon="-1.9660564419"><ele>170.29</ele><time>2011-11-23T11:51:41Z</time></trkpt><trkpt lat="51.8690904323" lon="-1.9661297835"><ele>169.81</ele><time>2011-11-23T11:51:55Z</time></trkpt><trkpt lat="51.8693021592" lon="-1.9662818313"><ele>170.29</ele><time>2011-11-23T11:52:14Z</time></trkpt><trkpt lat="51.8693737406" lon="-1.9662512373"><ele>169.81</ele><time>2011-11-23T11:52:28Z</time></trkpt><trkpt lat="51.8694014009" lon="-1.9662668277"><ele>169.81</ele><time>2011-11-23T11:52:31Z</time></trkpt><trkpt lat="51.8694738206" lon="-1.9663988426"><ele>170.29</ele><time>2011-11-23T11:52:42Z</time></trkpt><trkpt lat="51.8695319910" lon="-1.9664410874"><ele>170.29</ele><time>2011-11-23T11:52:48Z</time></trkpt><trkpt lat="51.8696904089" lon="-1.9665252417"><ele>170.77</ele><time>2011-11-23T11:53:02Z</time></trkpt><trkpt lat="51.8698142935" lon="-1.9665770419"><ele>170.77</ele><time>2011-11-23T11:53:15Z</time></trkpt><trkpt lat="51.8699139543" lon="-1.9666241482"><ele>170.77</ele><time>2011-11-23T11:53:26Z</time></trkpt><trkpt lat="51.8700538483" lon="-1.9666727632"><ele>170.29</ele><time>2011-11-23T11:53:42Z</time></trkpt><trkpt lat="51.8700748868" lon="-1.9666823186"><ele>169.81</ele><time>2011-11-23T11:53:56Z</time></trkpt><trkpt lat="51.8701132759" lon="-1.9666945562"><ele>169.81</ele><time>2011-11-23T11:53:59Z</time></trkpt><trkpt lat="51.8703327142" lon="-1.9667796325"><ele>169.33</ele><time>2011-11-23T11:54:16Z</time></trkpt><trkpt lat="51.8704432715" lon="-1.9668437541"><ele>169.33</ele><time>2011-11-23T11:54:30Z</time></trkpt><trkpt lat="51.8705503084" lon="-1.9669081271"><ele>168.37</ele><time>2011-11-23T11:54:45Z</time></trkpt><trkpt lat="51.8706684932" lon="-1.9669541437"><ele>168.85</ele><time>2011-11-23T11:55:00Z</time></trkpt><trkpt lat="51.8707699142" lon="-1.9669885095"><ele>168.37</ele><time>2011-11-23T11:55:14Z</time></trkpt><trkpt lat="51.8709082156" lon="-1.9670234621"><ele>167.89</ele><time>2011-11-23T11:55:30Z</time></trkpt><trkpt lat="51.8709524721" lon="-1.9670522958"><ele>167.89</ele><time>2011-11-23T11:55:45Z</time></trkpt><trkpt lat="51.8710193597" lon="-1.9670999050"><ele>167.89</ele><time>2011-11-23T11:56:00Z</time></trkpt><trkpt lat="51.8711492792" lon="-1.9671342708"><ele>168.37</ele><time>2011-11-23T11:56:16Z</time></trkpt><trkpt lat="51.8712936994" lon="-1.9672047626"><ele>168.37</ele><time>2011-11-23T11:56:32Z</time></trkpt><trkpt lat="51.8713952880" lon="-1.9672474265"><ele>168.37</ele><time>2011-11-23T11:56:46Z</time></trkpt><trkpt lat="51.8715041690" lon="-1.9672972150"><ele>168.85</ele><time>2011-11-23T11:56:59Z</time></trkpt><trkpt lat="51.8716212641" lon="-1.9673454948"><ele>167.89</ele><time>2011-11-23T11:57:14Z</time></trkpt><trkpt lat="51.8716713041" lon="-1.9673308264"><ele>168.37</ele><time>2011-11-23T11:57:27Z</time></trkpt><trkpt lat="51.8716713041" lon="-1.9673308264"><ele>167.89</ele><time>2011-11-23T11:57:33Z</time></trkpt><trkpt lat="51.8717177399" lon="-1.9673586544"><ele>167.89</ele><time>2011-11-23T11:57:38Z</time></trkpt><trkpt lat="51.8718570471" lon="-1.9674495142"><ele>167.41</ele><time>2011-11-23T11:57:52Z</time></trkpt><trkpt lat="51.8719992880" lon="-1.9675076846"><ele>167.41</ele><time>2011-11-23T11:58:08Z</time></trkpt><trkpt lat="51.8720469810" lon="-1.9675591495"><ele>167.41</ele><time>2011-11-23T11:58:20Z</time></trkpt><trkpt lat="51.8721219152" lon="-1.9676127937"><ele>167.41</ele><time>2011-11-23T11:58:28Z</time></trkpt><trkpt lat="51.8722009566" lon="-1.9676526077"><ele>167.41</ele><time>2011-11-23T11:58:35Z</time></trkpt><trkpt lat="51.8722747173" lon="-1.9676907454"><ele>167.41</ele><time>2011-11-23T11:58:43Z</time></trkpt><trkpt lat="51.8723236676" lon="-1.9677174836"><ele>167.89</ele><time>2011-11-23T11:58:48Z</time></trkpt><trkpt lat="51.8724621367" lon="-1.9677834492"><ele>168.37</ele><time>2011-11-23T11:59:04Z</time></trkpt><trkpt lat="51.8725940678" lon="-1.9677780010"><ele>167.41</ele><time>2011-11-23T11:59:19Z</time></trkpt><trkpt lat="51.8726028688" lon="-1.9677796774"><ele>167.89</ele><time>2011-11-23T11:59:23Z</time></trkpt><trkpt lat="51.8726192135" lon="-1.9677976146"><ele>167.89</ele><time>2011-11-23T11:59:25Z</time></trkpt><trkpt lat="51.8727948982" lon="-1.9678833615"><ele>167.41</ele><time>2011-11-23T11:59:41Z</time></trkpt><trkpt lat="51.8729520589" lon="-1.9679607265"><ele>167.89</ele><time>2011-11-23T11:59:56Z</time></trkpt><trkpt lat="51.8731473573" lon="-1.9679981098"><ele>167.41</ele><time>2011-11-23T12:00:11Z</time></trkpt><trkpt lat="51.8732299190" lon="-1.9679899793"><ele>166.93</ele><time>2011-11-23T12:00:19Z</time></trkpt><trkpt lat="51.8733880855" lon="-1.9679412805"><ele>165.48</ele><time>2011-11-23T12:00:35Z</time></trkpt><trkpt lat="51.8734625168" lon="-1.9678852055"><ele>165.48</ele><time>2011-11-23T12:00:42Z</time></trkpt><trkpt lat="51.8735338468" lon="-1.9677745644"><ele>165.00</ele><time>2011-11-23T12:00:56Z</time></trkpt><trkpt lat="51.8735454138" lon="-1.9677512627"><ele>164.52</ele><time>2011-11-23T12:01:00Z</time></trkpt><trkpt lat="51.8735617585" lon="-1.9677323196"><ele>165.00</ele><time>2011-11-23T12:01:02Z</time></trkpt><trkpt lat="51.8737045862" lon="-1.9676106144"><ele>164.52</ele><time>2011-11-23T12:01:17Z</time></trkpt><trkpt lat="51.8738412112" lon="-1.9674937706"><ele>164.04</ele><time>2011-11-23T12:01:32Z</time></trkpt><trkpt lat="51.8739491701" lon="-1.9674081914"><ele>163.56</ele><time>2011-11-23T12:01:48Z</time></trkpt><trkpt lat="51.8740269542" lon="-1.9673312455"><ele>163.56</ele><time>2011-11-23T12:02:02Z</time></trkpt><trkpt lat="51.8741101027" lon="-1.9672676269"><ele>163.08</ele><time>2011-11-23T12:02:16Z</time></trkpt><trkpt lat="51.8742213305" lon="-1.9671636913"><ele>162.60</ele><time>2011-11-23T12:02:30Z</time></trkpt><trkpt lat="51.8743306305" lon="-1.9670470990"><ele>162.60</ele><time>2011-11-23T12:02:45Z</time></trkpt><trkpt lat="51.8745110929" lon="-1.9669423252"><ele>162.12</ele><time>2011-11-23T12:03:01Z</time></trkpt><trkpt lat="51.8745967560" lon="-1.9667503797"><ele>161.64</ele><time>2011-11-23T12:03:19Z</time></trkpt><trkpt lat="51.8746532500" lon="-1.9666006789"><ele>162.12</ele><time>2011-11-23T12:03:33Z</time></trkpt><trkpt lat="51.8745888770" lon="-1.9665030297"><ele>162.12</ele><time>2011-11-23T12:03:43Z</time></trkpt><trkpt lat="51.8744928204" lon="-1.9664521515"><ele>162.12</ele><time>2011-11-23T12:03:58Z</time></trkpt><trkpt lat="51.8744928204" lon="-1.9664521515"><ele>162.12</ele><time>2011-11-23T12:04:18Z</time></trkpt></trkseg></trk></gpx>